createdAt,value
2019-02-06T00:00:53.014Z,14.70
2019-02-06T00:03:23.758Z,15.37
2019-02-06T00:05:54.502Z,17.37
2019-02-06T00:08:25.107Z,16.80
2019-02-06T00:10:55.842Z,17.30
2019-02-06T00:13:26.323Z,17.00
2019-02-06T00:15:56.972Z,17.70
2019-02-06T00:18:28.023Z,17.77
2019-02-06T00:20:58.481Z,17.27
2019-02-06T00:23:28.982Z,16.90
2019-02-06T00:25:59.478Z,16.97
2019-02-06T00:28:30.073Z,17.30
2019-02-06T00:31:00.532Z,16.73
2019-02-06T00:33:31.003Z,17.20
2019-02-06T00:36:01.522Z,15.57
2019-02-06T00:38:31.982Z,16.30
2019-02-06T00:41:02.587Z,16.77
2019-02-06T00:43:33.192Z,18.33
2019-02-06T00:46:03.978Z,19.57
2019-02-06T00:48:34.477Z,15.90
2019-02-06T00:51:04.994Z,17.33
2019-02-06T00:53:35.572Z,16.80
2019-02-06T00:56:06.462Z,15.83
2019-02-06T00:58:36.925Z,15.00
2019-02-06T01:01:07.950Z,15.43
2019-02-06T01:03:38.635Z,15.47
2019-02-06T01:06:09.385Z,15.53
2019-02-06T01:08:40.045Z,16.67
2019-02-06T01:11:10.509Z,14.53
2019-02-06T01:13:40.983Z,15.63
2019-02-06T01:16:11.503Z,15.57
2019-02-06T01:18:41.956Z,15.33
2019-02-06T01:21:12.425Z,13.97
2019-02-06T01:23:43.409Z,14.13
2019-02-06T01:26:13.964Z,14.07
2019-02-06T01:28:44.483Z,14.83
2019-02-06T01:31:18.297Z,16.33
2019-02-06T01:33:48.798Z,15.63
2019-02-06T01:36:19.262Z,14.77
2019-02-06T01:38:49.727Z,15.33
2019-02-06T01:41:20.185Z,16.13
2019-02-06T01:43:50.687Z,16.97
2019-02-06T01:46:21.185Z,14.63
2019-02-06T01:48:51.693Z,16.60
2019-02-06T01:51:22.170Z,15.53
2019-02-06T01:53:52.884Z,15.50
2019-02-06T01:56:23.333Z,16.23
2019-02-06T01:58:53.843Z,16.97
2019-02-06T02:01:24.350Z,17.17
2019-02-06T02:03:54.906Z,16.33
2019-02-06T02:06:25.688Z,17.13
2019-02-06T02:09:00.257Z,15.43
2019-02-06T02:11:30.757Z,15.07
2019-02-06T02:14:01.220Z,16.30
2019-02-06T02:16:31.821Z,16.27
2019-02-06T02:19:02.670Z,15.47
2019-02-06T02:21:33.275Z,16.77
2019-02-06T02:24:03.874Z,15.63
2019-02-06T02:26:34.442Z,16.83
2019-02-06T02:29:05.362Z,15.97
2019-02-06T02:31:36.181Z,15.60
2019-02-06T02:34:06.628Z,17.27
2019-02-06T02:36:37.090Z,22.43
2019-02-06T02:39:09.046Z,17.27
2019-02-06T02:41:39.543Z,17.47
2019-02-06T02:44:10.105Z,17.10
2019-02-06T02:46:40.781Z,17.37
2019-02-06T02:49:11.276Z,15.73
2019-02-06T02:51:44.215Z,16.73
2019-02-06T02:54:13.979Z,17.47
2019-02-06T02:56:44.537Z,17.07
2019-02-06T02:59:15.314Z,15.63
2019-02-06T03:01:58.896Z,16.67
2019-02-06T03:04:36.465Z,18.17
2019-02-06T03:07:07.071Z,17.87
2019-02-06T03:09:37.843Z,17.40
2019-02-06T03:12:08.455Z,15.83
2019-02-06T03:14:38.920Z,15.63
2019-02-06T03:17:09.435Z,16.77
2019-02-06T03:19:39.923Z,17.77
2019-02-06T03:22:10.488Z,20.13
2019-02-06T03:24:41.000Z,21.47
2019-02-06T03:27:11.461Z,19.10
2019-02-06T03:29:41.961Z,21.23
2019-02-06T03:32:12.423Z,27.73
2019-02-06T03:34:42.926Z,19.47
2019-02-06T03:37:13.661Z,20.57
2019-02-06T03:39:44.105Z,22.73
2019-02-06T03:42:14.556Z,19.83
2019-02-06T03:44:45.068Z,19.43
2019-02-06T03:47:15.523Z,27.57
2019-02-06T03:49:46.092Z,19.47
2019-02-06T03:52:16.765Z,18.63
2019-02-06T03:54:47.234Z,17.37
2019-02-06T03:57:17.737Z,18.50
2019-02-06T03:59:48.249Z,18.30
2019-02-06T04:02:18.691Z,20.30
2019-02-06T04:04:49.254Z,19.03
2019-02-06T04:07:19.754Z,20.70
2019-02-06T04:09:50.212Z,18.83
2019-02-06T04:12:20.721Z,22.33
2019-02-06T04:14:51.224Z,20.67
2019-02-06T04:17:21.700Z,21.90
2019-02-06T04:19:52.459Z,18.77
2019-02-06T04:22:22.934Z,23.20
2019-02-06T04:24:53.436Z,24.03
2019-02-06T04:27:23.905Z,20.10
2019-02-06T04:29:54.919Z,20.60
2019-02-06T04:32:25.427Z,19.07
2019-02-06T04:34:55.880Z,19.80
2019-02-06T04:37:26.371Z,20.40
2019-02-06T04:39:56.844Z,19.17
2019-02-06T04:42:27.365Z,19.57
2019-02-06T04:44:57.821Z,18.77
2019-02-06T04:47:28.494Z,18.40
2019-02-06T04:49:59.054Z,19.97
2019-02-06T04:52:29.526Z,20.03
2019-02-06T04:55:00.001Z,19.87
2019-02-06T04:57:30.537Z,20.97
2019-02-06T05:00:01.004Z,30.13
2019-02-06T05:02:31.516Z,22.90
2019-02-06T05:05:01.998Z,19.93
2019-02-06T05:07:32.489Z,33.50
2019-02-06T05:10:02.964Z,33.90
2019-02-06T05:12:33.481Z,32.80
2019-02-06T05:15:04.601Z,26.80
2019-02-06T05:17:35.104Z,32.83
2019-02-06T05:20:10.576Z,34.30
2019-02-06T05:22:41.076Z,31.67
2019-02-06T05:25:11.730Z,28.63
2019-02-06T05:27:42.230Z,23.23
2019-02-06T05:30:12.977Z,34.67
2019-02-06T05:32:43.486Z,80.23
2019-02-06T05:35:14.059Z,81.50
2019-02-06T05:37:44.627Z,28.33
2019-02-06T05:40:15.346Z,27.63
2019-02-06T05:42:46.255Z,30.70
2019-02-06T05:45:16.917Z,30.77
2019-02-06T05:47:47.439Z,24.80
2019-02-06T05:50:18.097Z,26.83
2019-02-06T05:52:48.631Z,28.60
2019-02-06T05:55:19.571Z,26.13
2019-02-06T05:57:50.331Z,26.33
2019-02-06T06:00:25.619Z,26.17
2019-02-06T06:02:56.388Z,28.90
2019-02-06T06:05:27.017Z,25.93
2019-02-06T06:07:57.588Z,29.43
2019-02-06T06:10:28.442Z,78.57
2019-02-06T06:12:58.957Z,45.33
2019-02-06T06:15:29.728Z,32.07
2019-02-06T06:18:00.189Z,24.70
2019-02-06T06:20:30.697Z,21.53
2019-02-06T06:23:01.358Z,39.90
2019-02-06T06:25:32.201Z,25.13
2019-02-06T06:28:02.716Z,22.90
2019-02-06T06:30:33.267Z,25.07
2019-02-06T06:33:03.723Z,25.20
2019-02-06T06:35:34.268Z,27.17
2019-02-06T06:38:05.089Z,29.87
2019-02-06T06:40:35.721Z,28.13
2019-02-06T06:43:06.518Z,29.93
2019-02-06T06:45:37.139Z,34.50
2019-02-06T06:48:07.648Z,56.27
2019-02-06T06:50:38.540Z,46.93
2019-02-06T06:53:09.467Z,26.53
2019-02-06T06:55:40.013Z,38.37
2019-02-06T06:58:10.581Z,31.60
2019-02-06T07:00:41.082Z,33.40
2019-02-06T07:03:11.580Z,37.70
2019-02-06T07:05:42.052Z,44.33
2019-02-06T07:08:13.477Z,36.27
2019-02-06T07:10:44.157Z,33.33
2019-02-06T07:13:14.627Z,33.57
2019-02-06T07:15:45.502Z,32.70
2019-02-06T07:18:15.976Z,30.87
2019-02-06T07:20:46.740Z,29.67
2019-02-06T07:23:17.230Z,30.80
2019-02-06T07:25:47.737Z,29.90
2019-02-06T07:28:20.679Z,31.00
2019-02-06T07:30:51.223Z,25.63
2019-02-06T07:33:21.990Z,29.43
2019-02-06T07:35:52.466Z,50.40
2019-02-06T07:38:24.556Z,30.77
2019-02-06T07:40:55.246Z,26.27
2019-02-06T07:43:25.768Z,23.00
2019-02-06T07:45:56.246Z,20.77
2019-02-06T07:48:26.754Z,24.33
2019-02-06T07:50:57.236Z,25.20
2019-02-06T07:53:27.762Z,31.00
2019-02-06T07:55:58.437Z,25.77
2019-02-06T07:58:29.064Z,18.57
2019-02-06T08:01:01.081Z,18.73
2019-02-06T08:03:31.733Z,18.17
2019-02-06T08:06:03.302Z,20.50
2019-02-06T08:08:36.003Z,18.30
2019-02-06T08:11:06.382Z,25.20
2019-02-06T08:13:36.946Z,21.30
2019-02-06T08:16:07.622Z,18.77
2019-02-06T08:18:38.113Z,18.60
2019-02-06T08:21:08.589Z,17.40
2019-02-06T08:23:39.103Z,20.00
2019-02-06T08:26:09.710Z,21.17
2019-02-06T08:28:40.441Z,21.80
2019-02-06T08:31:11.090Z,20.57
2019-02-06T08:33:41.664Z,20.77
2019-02-06T08:36:12.179Z,21.23
2019-02-06T08:38:47.581Z,22.67
2019-02-06T08:41:15.078Z,25.53
2019-02-06T08:43:45.636Z,26.93
2019-02-06T08:46:16.202Z,38.63
2019-02-06T08:48:46.729Z,33.70
2019-02-06T08:51:17.219Z,30.40
2019-02-06T08:53:47.709Z,24.03
2019-02-06T08:56:18.529Z,31.80
2019-02-06T08:58:49.021Z,28.27
2019-02-06T09:01:19.605Z,26.97
2019-02-06T09:03:50.106Z,33.50
2019-02-06T09:06:20.610Z,28.37
2019-02-06T09:08:59.241Z,26.80
2019-02-06T09:11:23.314Z,25.27
2019-02-06T09:13:53.914Z,26.43
2019-02-06T09:16:25.225Z,27.83
2019-02-06T09:18:55.737Z,31.07
2019-02-06T09:21:27.028Z,27.93
2019-02-06T09:23:57.554Z,29.10
2019-02-06T09:26:28.130Z,28.97
2019-02-06T09:29:01.831Z,26.20
2019-02-06T09:31:32.297Z,26.03
2019-02-06T09:34:02.969Z,26.93
2019-02-06T09:36:33.897Z,24.17
2019-02-06T09:39:11.586Z,21.17
2019-02-06T09:41:38.561Z,22.13
2019-02-06T09:44:09.154Z,24.90
2019-02-06T09:46:39.674Z,22.60
2019-02-06T09:49:10.158Z,25.30
2019-02-06T09:51:40.665Z,23.93
2019-02-06T09:54:11.142Z,22.97
2019-02-06T09:56:41.875Z,23.93
2019-02-06T09:59:12.354Z,21.90
2019-02-06T10:01:42.868Z,23.53
2019-02-06T10:04:13.761Z,24.73
2019-02-06T10:06:44.284Z,22.10
2019-02-06T10:09:22.668Z,21.33
2019-02-06T10:11:47.025Z,22.07
2019-02-06T10:14:17.502Z,18.80
2019-02-06T10:16:48.021Z,19.17
2019-02-06T10:19:18.661Z,20.50
2019-02-06T10:21:52.777Z,19.63
2019-02-06T10:24:21.648Z,21.07
2019-02-06T10:26:52.269Z,18.83
2019-02-06T10:29:23.115Z,11.60
2019-02-06T10:31:53.772Z,8.97
2019-02-06T10:34:24.297Z,8.13
2019-02-06T10:36:54.873Z,8.40
2019-02-06T10:39:34.298Z,8.43
2019-02-06T10:41:57.868Z,8.60
2019-02-06T10:44:28.812Z,8.17
2019-02-06T10:46:59.451Z,8.43
2019-02-06T10:49:30.085Z,8.77
2019-02-06T10:52:00.832Z,7.50
2019-02-06T10:54:31.463Z,7.40
2019-02-06T10:57:02.164Z,7.10
2019-02-06T10:59:34.287Z,6.13
2019-02-06T11:02:05.125Z,5.97
2019-02-06T11:04:35.628Z,6.47
2019-02-06T11:07:08.248Z,6.70
2019-02-06T11:09:45.950Z,7.80
2019-02-06T11:12:10.922Z,7.90
2019-02-06T11:14:41.510Z,5.57
2019-02-06T11:17:12.011Z,5.50
2019-02-06T11:19:43.278Z,5.50
2019-02-06T11:22:13.863Z,5.57
2019-02-06T11:24:44.319Z,4.57
2019-02-06T11:27:15.284Z,5.03
2019-02-06T11:29:48.711Z,6.57
2019-02-06T11:32:19.338Z,4.53
2019-02-06T11:34:50.040Z,4.17
2019-02-06T11:37:20.705Z,4.30
2019-02-06T11:39:57.952Z,4.50
2019-02-06T11:42:23.656Z,4.37
2019-02-06T11:44:54.618Z,5.27
2019-02-06T11:47:25.233Z,5.07
2019-02-06T11:49:58.898Z,4.97
2019-02-06T11:52:29.374Z,5.30
2019-02-06T11:55:00.064Z,4.67
2019-02-06T11:57:30.597Z,5.27
2019-02-06T12:00:01.126Z,5.47
2019-02-06T12:02:37.528Z,5.33
2019-02-06T12:05:03.889Z,5.00
2019-02-06T12:07:34.409Z,4.97
2019-02-06T12:10:09.959Z,5.40
2019-02-06T12:12:39.023Z,5.57
2019-02-06T12:15:13.225Z,5.63
2019-02-06T12:17:44.076Z,5.27
2019-02-06T12:20:17.562Z,5.47
2019-02-06T12:22:48.128Z,5.07
2019-02-06T12:25:19.367Z,4.60
2019-02-06T12:27:49.989Z,5.37
2019-02-06T12:30:23.504Z,4.10
2019-02-06T12:32:54.094Z,4.37
2019-02-06T12:35:24.836Z,3.53
2019-02-06T12:37:55.689Z,4.17
2019-02-06T12:40:26.517Z,3.23
2019-02-06T12:42:57.030Z,3.87
2019-02-06T12:45:27.625Z,3.90
2019-02-06T12:47:59.017Z,4.10
2019-02-06T12:50:29.618Z,3.80
2019-02-06T12:53:00.119Z,3.77
2019-02-06T12:55:32.594Z,3.40
2019-02-06T12:58:03.234Z,3.67
2019-02-06T13:00:35.053Z,4.47
2019-02-06T13:03:05.724Z,4.80
2019-02-06T13:05:36.391Z,4.00
2019-02-06T13:08:07.673Z,3.90
2019-02-06T13:10:38.637Z,5.60
2019-02-06T13:13:09.449Z,3.83
2019-02-06T13:15:40.292Z,3.17
2019-02-06T13:18:11.120Z,3.40
2019-02-06T13:20:43.103Z,3.00
2019-02-06T13:23:13.723Z,2.87
2019-02-06T13:25:44.283Z,2.50
2019-02-06T13:28:15.149Z,2.80
2019-02-06T13:30:45.638Z,3.63
2019-02-06T13:33:16.260Z,3.53
2019-02-06T13:35:46.724Z,3.83
2019-02-06T13:38:17.284Z,4.70
2019-02-06T13:40:47.925Z,6.40
2019-02-06T13:43:18.411Z,7.53
2019-02-06T13:45:49.595Z,5.60
2019-02-06T13:48:20.045Z,6.13
2019-02-06T13:50:50.641Z,9.13
2019-02-06T13:53:21.236Z,8.90
2019-02-06T13:55:52.380Z,4.50
2019-02-06T13:58:22.980Z,11.87
2019-02-06T14:00:53.502Z,12.83
2019-02-06T14:03:24.046Z,6.43
2019-02-06T14:05:54.875Z,6.17
2019-02-06T14:08:25.640Z,5.47
2019-02-06T14:11:00.512Z,6.57
2019-02-06T14:13:28.504Z,6.40
2019-02-06T14:15:59.038Z,7.03
2019-02-06T14:18:29.493Z,8.07
2019-02-06T14:21:00.266Z,7.30
2019-02-06T14:23:38.659Z,8.80
2019-02-06T14:26:48.765Z,6.60
2019-02-06T14:30:04.568Z,6.13
2019-02-06T14:33:04.265Z,6.47
2019-02-06T14:36:00.170Z,6.60
2019-02-06T14:38:43.646Z,7.13
2019-02-06T14:41:37.379Z,6.97
2019-02-06T14:44:39.758Z,8.03
2019-02-06T14:47:32.006Z,8.17
2019-02-06T14:50:43.164Z,6.40
2019-02-06T14:53:28.872Z,6.00
2019-02-06T14:56:47.367Z,5.80
2019-02-06T14:59:40.088Z,6.87
2019-02-06T15:03:24.567Z,7.13
2019-02-06T15:06:31.250Z,7.47
2019-02-06T15:09:54.413Z,7.37
2019-02-06T15:13:00.979Z,7.67
2019-02-06T15:16:09.545Z,8.50
2019-02-06T15:18:52.858Z,9.40
2019-02-06T15:21:57.980Z,8.40
2019-02-06T15:25:02.274Z,8.17
2019-02-06T15:28:09.303Z,6.93
2019-02-06T15:31:28.426Z,7.00
2019-02-06T15:34:29.896Z,8.50
2019-02-06T15:37:53.097Z,8.07
2019-02-06T15:41:03.810Z,10.93
2019-02-06T15:44:05.446Z,9.97
2019-02-06T15:46:48.022Z,8.70
2019-02-06T15:49:57.705Z,9.93
2019-02-06T15:53:08.845Z,11.10
2019-02-06T15:56:14.407Z,10.07
2019-02-06T15:59:39.816Z,8.73
2019-02-06T16:02:32.421Z,8.67
2019-02-06T16:06:06.891Z,9.23
2019-02-06T16:09:11.565Z,9.17
2019-02-06T16:12:19.688Z,9.50
2019-02-06T16:15:22.040Z,10.10
2019-02-06T16:18:45.245Z,10.03
2019-02-06T16:21:32.386Z,11.07
2019-02-06T16:24:18.920Z,9.07
2019-02-06T16:27:28.729Z,10.50
2019-02-06T16:30:35.362Z,10.27
2019-02-06T16:33:41.735Z,11.47
2019-02-06T16:37:03.687Z,11.20
2019-02-06T16:40:18.477Z,10.67
2019-02-06T16:43:14.032Z,8.03
2019-02-06T16:46:24.254Z,8.73
2019-02-06T16:49:02.443Z,10.43
2019-02-06T16:51:49.553Z,10.67
2019-02-06T16:55:09.643Z,10.37
2019-02-06T16:57:57.327Z,8.70
2019-02-06T17:00:54.425Z,8.53
2019-02-06T17:04:04.302Z,9.47
2019-02-06T17:07:01.843Z,10.17
2019-02-06T17:10:18.885Z,11.57
2019-02-06T17:13:23.104Z,12.40
2019-02-06T17:16:45.155Z,15.93
2019-02-06T17:19:59.226Z,16.30
2019-02-06T17:23:10.815Z,16.30
2019-02-06T17:26:04.307Z,12.97
2019-02-06T17:28:46.600Z,17.87
2019-02-06T17:31:46.821Z,16.33
2019-02-06T17:34:47.234Z,14.63
2019-02-06T17:38:03.345Z,14.07
2019-02-06T17:41:02.768Z,14.03
2019-02-06T17:44:12.669Z,14.10
2019-02-06T17:47:33.182Z,12.70
2019-02-06T17:50:42.517Z,13.37
2019-02-06T17:53:28.244Z,13.53
2019-02-06T17:55:58.758Z,14.07
2019-02-06T17:58:33.303Z,13.50
2019-02-06T18:01:29.219Z,12.70
2019-02-06T18:04:08.568Z,14.40
2019-02-06T18:06:39.164Z,33.77
2019-02-06T18:09:15.453Z,39.83
2019-02-06T18:11:47.186Z,17.67
2019-02-06T18:14:17.792Z,15.80
2019-02-06T18:16:48.354Z,12.17
2019-02-06T18:19:18.854Z,13.10
2019-02-06T18:21:49.316Z,12.20
2019-02-06T18:24:19.932Z,11.30
2019-02-06T18:26:50.647Z,11.63
2019-02-06T18:29:21.159Z,11.63
2019-02-06T18:31:51.824Z,11.70
2019-02-06T18:34:22.328Z,10.97
2019-02-06T18:36:52.946Z,12.10
2019-02-06T18:39:23.455Z,11.03
2019-02-06T18:41:53.930Z,11.57
2019-02-06T18:44:25.200Z,12.37
2019-02-06T18:46:57.925Z,12.37
2019-02-06T18:49:28.490Z,13.13
2019-02-06T18:51:59.192Z,13.57
2019-02-06T18:54:30.165Z,13.30
2019-02-06T18:57:00.829Z,13.53
2019-02-06T18:59:31.417Z,13.63
2019-02-06T19:02:02.039Z,14.60
2019-02-06T19:04:32.669Z,14.23
2019-02-06T19:07:03.390Z,15.13
2019-02-06T19:09:34.086Z,15.80
2019-02-06T19:12:04.732Z,16.60
2019-02-06T19:14:35.212Z,17.63
2019-02-06T19:17:06.022Z,16.37
2019-02-06T19:19:36.517Z,15.23
2019-02-06T19:22:07.394Z,15.73
2019-02-06T19:24:37.915Z,15.97
2019-02-06T19:27:08.660Z,19.47
2019-02-06T19:29:39.160Z,17.03
2019-02-06T19:32:09.630Z,16.27
2019-02-06T19:34:40.134Z,15.60
2019-02-06T19:37:10.587Z,15.27
2019-02-06T19:39:41.106Z,14.87
2019-02-06T19:42:11.856Z,16.43
2019-02-06T19:44:42.319Z,15.27
2019-02-06T19:47:12.839Z,16.03
2019-02-06T19:49:43.305Z,14.60
2019-02-06T19:52:13.984Z,14.53
2019-02-06T19:54:46.228Z,15.27
2019-02-06T19:57:16.641Z,16.37
2019-02-06T19:59:47.283Z,17.07
2019-02-06T20:02:17.837Z,17.07
2019-02-06T20:04:48.436Z,17.20
2019-02-06T20:07:18.946Z,16.03
2019-02-06T20:09:49.455Z,17.33
2019-02-06T20:12:20.081Z,16.97
2019-02-06T20:14:50.552Z,19.20
2019-02-06T20:17:21.167Z,20.23
2019-02-06T20:19:51.692Z,19.67
2019-02-06T20:22:22.150Z,18.53
2019-02-06T20:24:52.715Z,18.17
2019-02-06T20:27:23.216Z,19.53
2019-02-06T20:29:53.841Z,21.33
2019-02-06T20:32:24.631Z,21.27
2019-02-06T20:34:55.145Z,18.67
2019-02-06T20:37:25.629Z,19.53
2019-02-06T20:39:56.102Z,19.30
2019-02-06T20:42:26.603Z,18.30
2019-02-06T20:44:57.320Z,17.57
2019-02-06T20:47:27.770Z,19.07
2019-02-06T20:49:58.276Z,16.93
2019-02-06T20:52:28.726Z,15.03
2019-02-06T20:54:59.231Z,15.93
2019-02-06T20:57:29.689Z,13.63
2019-02-06T21:00:00.433Z,15.20
2019-02-06T21:02:30.898Z,15.60
2019-02-06T21:05:01.361Z,15.63
2019-02-06T21:07:31.878Z,15.63
2019-02-06T21:10:02.349Z,15.30
2019-02-06T21:12:32.859Z,11.63
2019-02-06T21:15:03.424Z,10.90
2019-02-06T21:17:33.929Z,8.53
2019-02-06T21:20:04.921Z,8.27
2019-02-06T21:22:35.384Z,6.77
2019-02-06T21:25:09.503Z,6.97
2019-02-06T21:27:38.963Z,7.00
2019-02-06T21:30:20.961Z,6.80
2019-02-06T21:32:51.449Z,7.00
2019-02-06T21:35:22.021Z,7.03
2019-02-06T21:37:52.739Z,7.00
2019-02-06T21:40:25.140Z,6.80
2019-02-06T21:42:55.790Z,6.67
2019-02-06T21:45:26.248Z,6.63
2019-02-06T21:47:56.847Z,7.60
2019-02-06T21:50:27.506Z,8.37
2019-02-06T21:52:58.375Z,7.73
2019-02-06T21:55:29.046Z,7.63
2019-02-06T21:57:59.560Z,7.30
2019-02-06T22:00:40.799Z,7.50
2019-02-06T22:03:12.084Z,7.10
2019-02-06T22:05:42.738Z,7.40
2019-02-06T22:08:13.242Z,8.03
2019-02-06T22:10:43.692Z,7.73
2019-02-06T22:13:14.216Z,7.37
2019-02-06T22:15:44.679Z,7.83
2019-02-06T22:18:15.134Z,7.73
2019-02-06T22:20:45.731Z,8.30
2019-02-06T22:23:16.183Z,7.30
2019-02-06T22:25:46.778Z,6.80
2019-02-06T22:28:17.261Z,7.17
2019-02-06T22:30:48.031Z,7.13
2019-02-06T22:33:18.579Z,7.70
2019-02-06T22:35:49.324Z,7.60
2019-02-06T22:38:19.773Z,7.17
2019-02-06T22:40:50.275Z,8.00
2019-02-06T22:43:20.727Z,7.87
2019-02-06T22:45:51.186Z,7.97
2019-02-06T22:48:21.687Z,8.70
2019-02-06T22:50:52.128Z,7.40
2019-02-06T22:53:22.694Z,8.90
2019-02-06T22:55:53.177Z,8.47
2019-02-06T22:58:23.713Z,9.67
2019-02-06T23:01:06.233Z,9.40
2019-02-06T23:03:46.985Z,10.33
2019-02-06T23:06:17.535Z,10.67
2019-02-06T23:08:48.198Z,10.93
2019-02-06T23:11:18.802Z,10.40
2019-02-06T23:13:49.361Z,13.13
2019-02-06T23:16:19.965Z,14.50
2019-02-06T23:18:52.176Z,11.10
2019-02-06T23:21:22.783Z,12.23
2019-02-06T23:23:53.289Z,13.93
2019-02-06T23:26:23.764Z,14.30
2019-02-06T23:28:54.226Z,14.43
2019-02-06T23:31:24.833Z,15.37
2019-02-06T23:33:55.556Z,15.17
2019-02-06T23:36:26.049Z,14.53
2019-02-06T23:38:56.518Z,15.33
2019-02-06T23:41:27.039Z,14.47
2019-02-06T23:44:28.299Z,14.20
2019-02-06T23:46:50.223Z,14.97
2019-02-06T23:49:20.694Z,14.17
2019-02-06T23:51:51.201Z,14.93
2019-02-06T23:54:21.669Z,14.87
2019-02-06T23:56:52.547Z,15.27
2019-02-06T23:59:23.017Z,15.37
